sensor_id;sensor_type;location;lat;lon;timestamp;pressure;altitude;pressure_sealevel;temperature;humidity
4814;BME280;15375;48.540;9.268;2023-03-01T13:24:39;97396.69;;;8.58;50.36
4814;BME280;15375;48.540;9.268;2023-03-01T13:32:30;97401.47;;;8.43;51.27
4814;BME280;15375;48.540;9.268;2023-03-01T13:35:40;97403.25;;;8.60;50.96
4814;BME280;15375;48.540;9.268;2023-03-01T13:37:46;97396.78;;;8.44;50.82
4814;BME280;15375;48.540;9.268;2023-03-01T13:42:48;97389.16;;;8.24;50.57
4814;BME280;15375;48.540;9.268;2023-03-01T13:45:33;97366.34;;;8.15;51.38
4814;BME280;15375;48.540;9.268;2023-03-01T13:48:03;97381.41;;;8.26;51.02
4814;BME280;15375;48.540;9.268;2023-03-01T13:50:43;97391.09;;;8.24;51.15
4814;BME280;15375;48.540;9.268;2023-03-01T13:53:16;97371.97;;;8.42;51.46
4814;BME280;15375;48.540;9.268;2023-03-01T13:55:45;97394.06;;;8.47;50.92
4814;BME280;15375;48.540;9.268;2023-03-01T13:58:23;97368.09;;;8.39;50.70
4814;BME280;15375;48.540;9.268;2023-03-01T14:01:02;97389.13;;;8.31;51.62
4814;BME280;15375;48.540;9.268;2023-03-01T14:03:29;97362.72;;;8.36;51.14
4814;BME280;15375;48.540;9.268;2023-03-01T14:06:02;97390.06;;;8.59;50.84
4814;BME280;15375;48.540;9.268;2023-03-01T14:08:29;97390.31;;;8.30;51.15
4814;BME280;15375;48.540;9.268;2023-03-01T14:11:27;97407.66;;;8.47;50.75
4814;BME280;15375;48.540;9.268;2023-03-01T14:14:08;97390.38;;;8.16;51.47
4814;BME280;15375;48.540;9.268;2023-03-01T14:19:26;97404.56;;;8.42;50.85
4814;BME280;15375;48.540;9.268;2023-03-01T14:24:39;97393.91;;;8.13;51.30
4814;BME280;15375;48.540;9.268;2023-03-01T14:27:12;97398.50;;;8.27;51.72
4814;BME280;15375;48.540;9.268;2023-03-01T14:29:39;97391.16;;;8.17;51.14
4814;BME280;15375;48.540;9.268;2023-03-01T14:32:17;97410.00;;;8.42;52.17
4814;BME280;15375;48.540;9.268;2023-03-01T14:34:46;97416.53;;;8.51;51.80
4814;BME280;15375;48.540;9.268;2023-03-01T14:37:32;97404.03;;;8.61;50.39
4814;BME280;15375;48.540;9.268;2023-03-01T14:39:59;97415.22;;;8.70;50.63
4814;BME280;15375;48.540;9.268;2023-03-01T14:42:29;97406.56;;;8.38;50.77
4814;BME280;15375;48.540;9.268;2023-03-01T14:44:57;97405.47;;;8.28;51.78
4814;BME280;15375;48.540;9.268;2023-03-01T14:47:28;97395.38;;;8.25;51.51
4814;BME280;15375;48.540;9.268;2023-03-01T14:49:59;97413.22;;;8.26;51.68
4814;BME280;15375;48.540;9.268;2023-03-01T14:52:44;97378.91;;;7.95;51.97
4814;BME280;15375;48.540;9.268;2023-03-01T14:55:20;97399.31;;;8.13;51.81
4814;BME280;15375;48.540;9.268;2023-03-01T14:57:50;97386.88;;;8.19;51.75
4814;BME280;15375;48.540;9.268;2023-03-01T15:00:20;97392.75;;;8.14;51.50
4814;BME280;15375;48.540;9.268;2023-03-01T15:02:48;97388.63;;;7.89;52.04
4814;BME280;15375;48.540;9.268;2023-03-01T15:05:26;97397.94;;;7.95;52.08
4814;BME280;15375;48.540;9.268;2023-03-01T15:07:53;97387.44;;;7.93;52.32
4814;BME280;15375;48.540;9.268;2023-03-01T15:10:22;97391.34;;;7.92;52.52
4814;BME280;15375;48.540;9.268;2023-03-01T15:12:49;97401.78;;;7.97;53.07
4814;BME280;15375;48.540;9.268;2023-03-01T15:17:56;97394.91;;;7.79;53.31
4814;BME280;15375;48.540;9.268;2023-03-01T15:20:26;97423.25;;;7.70;53.07
4814;BME280;15375;48.540;9.268;2023-03-01T15:22:53;97409.03;;;7.49;53.67
4814;BME280;15375;48.540;9.268;2023-03-01T15:25:23;97417.91;;;7.53;53.91
4814;BME280;15375;48.540;9.268;2023-03-01T15:27:51;97416.75;;;7.57;54.54
4814;BME280;15375;48.540;9.268;2023-03-01T15:30:29;97415.25;;;7.46;53.99
4814;BME280;15375;48.540;9.268;2023-03-01T15:35:54;97380.81;;;7.32;54.67
4814;BME280;15375;48.540;9.268;2023-03-01T15:40:54;97385.47;;;7.28;55.21
4814;BME280;15375;48.540;9.268;2023-03-01T15:46:03;97353.38;;;7.13;54.85
4814;BME280;15375;48.540;9.268;2023-03-01T15:48:29;97368.50;;;7.14;55.63
4814;BME280;15375;48.540;9.268;2023-03-01T15:50:57;97380.09;;;7.25;55.36
4814;BME280;15375;48.540;9.268;2023-03-01T15:53:23;97361.97;;;6.97;55.05
4814;BME280;15375;48.540;9.268;2023-03-01T15:55:49;97345.72;;;6.90;55.12
4814;BME280;15375;48.540;9.268;2023-03-01T15:58:19;97385.91;;;7.13;54.86
4814;BME280;15375;48.540;9.268;2023-03-01T16:00:46;97363.09;;;7.06;55.27
4814;BME280;15375;48.540;9.268;2023-03-01T16:03:14;97357.34;;;6.87;54.65
4814;BME280;15375;48.540;9.268;2023-03-01T16:05:47;97377.84;;;6.98;55.44
4814;BME280;15375;48.540;9.268;2023-03-01T16:08:13;97367.03;;;6.91;55.36
4814;BME280;15375;48.540;9.268;2023-03-01T16:10:39;97365.13;;;6.81;55.30
4814;BME280;15375;48.540;9.268;2023-03-01T16:13:05;97377.09;;;6.87;55.32
4814;BME280;15375;48.540;9.268;2023-03-01T16:15:32;97379.03;;;6.83;55.37
4814;BME280;15375;48.540;9.268;2023-03-01T16:17:59;97380.59;;;6.77;55.72
4814;BME280;15375;48.540;9.268;2023-03-01T16:20:26;97377.50;;;6.75;55.13
4814;BME280;15375;48.540;9.268;2023-03-01T16:22:52;97382.16;;;6.75;55.56
4814;BME280;15375;48.540;9.268;2023-03-01T16:25:19;97391.84;;;6.72;55.82
4814;BME280;15375;48.540;9.268;2023-03-01T16:27:46;97376.78;;;6.61;55.96
4814;BME280;15375;48.540;9.268;2023-03-01T16:30:17;97397.69;;;6.64;55.78
4814;BME280;15375;48.540;9.268;2023-03-01T16:32:44;97393.03;;;6.57;55.95
4814;BME280;15375;48.540;9.268;2023-03-01T16:35:12;97395.38;;;6.48;56.03
4814;BME280;15375;48.540;9.268;2023-03-01T16:37:38;97383.38;;;6.42;56.13
4814;BME280;15375;48.540;9.268;2023-03-01T16:40:07;97379.53;;;6.36;56.30
4814;BME280;15375;48.540;9.268;2023-03-01T16:42:40;97388.03;;;6.38;56.41
4814;BME280;15375;48.540;9.268;2023-03-01T16:45:06;97382.63;;;6.31;56.26
4814;BME280;15375;48.540;9.268;2023-03-01T16:47:33;97407.75;;;6.38;56.39
4814;BME280;15375;48.540;9.268;2023-03-01T16:49:58;97417.03;;;6.30;56.59
4814;BME280;15375;48.540;9.268;2023-03-01T16:52:24;97376.03;;;6.07;56.32
4814;BME280;15375;48.540;9.268;2023-03-01T16:54:49;97398.47;;;6.11;56.90
4814;BME280;15375;48.540;9.268;2023-03-01T16:57:14;97405.03;;;6.07;56.84
4814;BME280;15375;48.540;9.268;2023-03-01T16:59:40;97427.09;;;6.16;57.11
4814;BME280;15375;48.540;9.268;2023-03-01T17:02:10;97437.91;;;6.12;57.41
4814;BME280;15375;48.540;9.268;2023-03-01T17:04:36;97401.47;;;5.74;57.71
4814;BME280;15375;48.540;9.268;2023-03-01T17:07:02;97420.84;;;5.84;57.92
4814;BME280;15375;48.540;9.268;2023-03-01T17:09:28;97412.31;;;5.74;57.64
4814;BME280;15375;48.540;9.268;2023-03-01T17:11:53;97439.03;;;5.87;58.23
4814;BME280;15375;48.540;9.268;2023-03-01T17:14:19;97452.59;;;5.90;58.30
4814;BME280;15375;48.540;9.268;2023-03-01T17:16:45;97456.78;;;5.84;58.65
4814;BME280;15375;48.540;9.268;2023-03-01T17:19:10;97464.16;;;5.84;58.71
4814;BME280;15375;48.540;9.268;2023-03-01T17:21:36;97466.44;;;5.78;58.99
4814;BME280;15375;48.540;9.268;2023-03-01T17:24:02;97444.38;;;5.58;59.30
4814;BME280;15375;48.540;9.268;2023-03-01T17:26:28;97472.97;;;5.66;59.34
4814;BME280;15375;48.540;9.268;2023-03-01T17:28:55;97466.03;;;5.65;59.53
4814;BME280;15375;48.540;9.268;2023-03-01T17:31:21;97467.50;;;5.52;59.48
4814;BME280;15375;48.540;9.268;2023-03-01T17:33:47;97452.38;;;5.37;59.46
4814;BME280;15375;48.540;9.268;2023-03-01T17:36:14;97476.38;;;5.46;59.86
4814;BME280;15375;48.540;9.268;2023-03-01T17:38:39;97463.59;;;5.36;60.19
4814;BME280;15375;48.540;9.268;2023-03-01T17:41:04;97482.53;;;5.46;60.24
4814;BME280;15375;48.540;9.268;2023-03-01T17:43:30;97448.09;;;5.26;60.84
4814;BME280;15375;48.540;9.268;2023-03-01T17:45:56;97470.94;;;5.35;60.56
4814;BME280;15375;48.540;9.268;2023-03-01T17:48:22;97484.84;;;5.37;60.95
4814;BME280;15375;48.540;9.268;2023-03-01T17:50:47;97475.53;;;5.31;60.71
4814;BME280;15375;48.540;9.268;2023-03-01T17:53:13;97473.22;;;5.30;61.02
4814;BME280;15375;48.540;9.268;2023-03-01T17:55:41;97489.47;;;5.33;61.61
4814;BME280;15375;48.540;9.268;2023-03-01T17:58:07;97484.81;;;5.30;61.63
4814;BME280;15375;48.540;9.268;2023-03-01T18:00:33;97480.94;;;5.28;61.72
4814;BME280;15375;48.540;9.268;2023-03-01T18:02:59;97452.16;;;4.95;62.09
4814;BME280;15375;48.540;9.268;2023-03-01T18:05:25;97472.28;;;5.01;62.43
4814;BME280;15375;48.540;9.268;2023-03-01T18:07:51;97461.38;;;4.83;62.91
4814;BME280;15375;48.540;9.268;2023-03-01T18:10:17;97455.84;;;4.69;64.06
4814;BME280;15375;48.540;9.268;2023-03-01T18:12:43;97496.91;;;4.89;63.60
4814;BME280;15375;48.540;9.268;2023-03-01T18:15:09;97469.72;;;4.64;64.27
4814;BME280;15375;48.540;9.268;2023-03-01T18:17:35;97481.31;;;4.65;64.97
4814;BME280;15375;48.540;9.268;2023-03-01T18:20:00;97475.03;;;4.50;65.53
4814;BME280;15375;48.540;9.268;2023-03-01T18:22:28;97498.19;;;4.55;66.99
4814;BME280;15375;48.540;9.268;2023-03-01T18:24:54;97496.59;;;4.46;67.16
4814;BME280;15375;48.540;9.268;2023-03-01T18:27:19;97476.84;;;4.35;66.33
4814;BME280;15375;48.540;9.268;2023-03-01T18:29:45;97476.41;;;4.33;67.41
4814;BME280;15375;48.540;9.268;2023-03-01T18:32:10;97471.72;;;4.27;66.81
4814;BME280;15375;48.540;9.268;2023-03-01T18:34:36;97496.53;;;4.39;67.48
4814;BME280;15375;48.540;9.268;2023-03-01T18:37:01;97487.13;;;4.23;67.90
4814;BME280;15375;48.540;9.268;2023-03-01T18:39:27;97486.69;;;4.21;68.84
4814;BME280;15375;48.540;9.268;2023-03-01T18:41:52;97471.16;;;4.07;69.01
4814;BME280;15375;48.540;9.268;2023-03-01T18:44:17;97463.81;;;4.04;68.96
4814;BME280;15375;48.540;9.268;2023-03-01T18:46:43;97473.88;;;4.07;69.30
4814;BME280;15375;48.540;9.268;2023-03-01T18:49:11;97494.00;;;4.17;69.00
4814;BME280;15375;48.540;9.268;2023-03-01T18:51:38;97490.91;;;4.18;69.41
4814;BME280;15375;48.540;9.268;2023-03-01T18:54:04;97441.25;;;3.86;69.41
4814;BME280;15375;48.540;9.268;2023-03-01T18:56:30;97450.59;;;3.96;69.57
4814;BME280;15375;48.540;9.268;2023-03-01T18:58:56;97455.31;;;4.02;68.93
4814;BME280;15375;48.540;9.268;2023-03-01T19:01:23;97488.66;;;4.24;69.01
4814;BME280;15375;48.540;9.268;2023-03-01T19:03:50;97472.78;;;4.15;69.09
4814;BME280;15375;48.540;9.268;2023-03-01T19:06:16;97439.81;;;3.96;68.79
4814;BME280;15375;48.540;9.268;2023-03-01T19:08:43;97489.78;;;4.19;68.88
4814;BME280;15375;48.540;9.268;2023-03-01T19:11:09;97470.00;;;4.08;69.60
4814;BME280;15375;48.540;9.268;2023-03-01T19:13:36;97465.03;;;4.14;69.98
4814;BME280;15375;48.540;9.268;2023-03-01T19:18:33;97447.56;;;3.97;69.37
4814;BME280;15375;48.540;9.268;2023-03-01T19:21:00;97451.44;;;4.00;70.17
4814;BME280;15375;48.540;9.268;2023-03-01T19:23:27;97445.59;;;3.94;70.63
4814;BME280;15375;48.540;9.268;2023-03-01T19:26:14;97449.75;;;3.88;70.96
4814;BME280;15375;48.540;9.268;2023-03-01T19:28:40;97450.81;;;3.76;71.52
4814;BME280;15375;48.540;9.268;2023-03-01T19:31:11;97450.28;;;3.64;72.10
4814;BME280;15375;48.540;9.268;2023-03-01T19:33:38;97427.06;;;3.52;72.78
4814;BME280;15375;48.540;9.268;2023-03-01T19:36:11;97454.63;;;3.72;73.55
4814;BME280;15375;48.540;9.268;2023-03-01T19:38:38;97460.34;;;3.67;73.91
4814;BME280;15375;48.540;9.268;2023-03-01T19:41:06;97454.16;;;3.66;73.08
4814;BME280;15375;48.540;9.268;2023-03-01T19:43:32;97451.84;;;3.65;74.07
4814;BME280;15375;48.540;9.268;2023-03-01T19:45:57;97444.13;;;3.63;73.42
4814;BME280;15375;48.540;9.268;2023-03-01T19:48:23;97454.16;;;3.66;74.06
4814;BME280;15375;48.540;9.268;2023-03-01T19:50:50;97438.69;;;3.60;72.58
4814;BME280;15375;48.540;9.268;2023-03-01T19:53:16;97393.66;;;3.31;72.21
4814;BME280;15375;48.540;9.268;2023-03-01T19:55:41;97420.03;;;3.48;72.68
4814;BME280;15375;48.540;9.268;2023-03-01T19:58:08;97413.84;;;3.44;73.30
4814;BME280;15375;48.540;9.268;2023-03-01T20:00:36;97442.56;;;3.62;72.55
4814;BME280;15375;48.540;9.268;2023-03-01T20:03:02;97442.47;;;3.55;72.94
4814;BME280;15375;48.540;9.268;2023-03-01T20:05:28;97435.38;;;3.40;73.14
4814;BME280;15375;48.540;9.268;2023-03-01T20:07:56;97418.97;;;3.19;73.33
4814;BME280;15375;48.540;9.268;2023-03-01T20:10:24;97440.59;;;3.26;73.86
4814;BME280;15375;48.540;9.268;2023-03-01T20:12:53;97438.94;;;3.14;73.25
4814;BME280;15375;48.540;9.268;2023-03-01T20:15:18;97447.81;;;3.18;73.13
4814;BME280;15375;48.540;9.268;2023-03-01T20:17:44;97441.94;;;3.09;73.93
4814;BME280;15375;48.540;9.268;2023-03-01T20:20:10;97431.28;;;2.90;74.90
4814;BME280;15375;48.540;9.268;2023-03-01T20:22:36;97443.72;;;2.98;74.98
4814;BME280;15375;48.540;9.268;2023-03-01T20:25:02;97424.53;;;2.74;76.18
4814;BME280;15375;48.540;9.268;2023-03-01T20:27:27;97413.19;;;2.61;76.14
4814;BME280;15375;48.540;9.268;2023-03-01T20:29:53;97429.34;;;2.61;76.97
4814;BME280;15375;48.540;9.268;2023-03-01T20:32:18;97423.41;;;2.52;76.85
4814;BME280;15375;48.540;9.268;2023-03-01T20:34:44;97434.16;;;2.48;77.55
4814;BME280;15375;48.540;9.268;2023-03-01T20:37:09;97426.63;;;2.35;77.84
4814;BME280;15375;48.540;9.268;2023-03-01T20:39:34;97404.34;;;2.12;78.53
4814;BME280;15375;48.540;9.268;2023-03-01T20:42:00;97431.38;;;2.19;78.80
4814;BME280;15375;48.540;9.268;2023-03-01T20:44:25;97439.00;;;2.17;79.35
4814;BME280;15375;48.540;9.268;2023-03-01T20:46:51;97430.06;;;2.09;79.69
4814;BME280;15375;48.540;9.268;2023-03-01T20:49:16;97392.28;;;1.79;80.29
4814;BME280;15375;48.540;9.268;2023-03-01T20:51:41;97447.53;;;2.19;80.51
4814;BME280;15375;48.540;9.268;2023-03-01T20:54:08;97447.53;;;2.19;81.32
4814;BME280;15375;48.540;9.268;2023-03-01T20:56:34;97432.28;;;2.04;80.17
4814;BME280;15375;48.540;9.268;2023-03-01T20:59:04;97444.41;;;2.17;80.46
4814;BME280;15375;48.540;9.268;2023-03-01T21:01:32;97399.34;;;1.87;80.52
4814;BME280;15375;48.540;9.268;2023-03-01T21:03:58;97422.66;;;2.03;80.91
4814;BME280;15375;48.540;9.268;2023-03-01T21:06:23;97442.44;;;2.14;80.82
4814;BME280;15375;48.540;9.268;2023-03-01T21:08:49;97423.63;;;1.91;81.02
4814;BME280;15375;48.540;9.268;2023-03-01T21:11:15;97422.34;;;1.85;81.52
4814;BME280;15375;48.540;9.268;2023-03-01T21:13:42;97435.00;;;1.84;81.79
4814;BME280;15375;48.540;9.268;2023-03-01T21:16:10;97446.47;;;1.81;81.70
4814;BME280;15375;48.540;9.268;2023-03-01T21:18:38;97431.38;;;1.73;82.88
4814;BME280;15375;48.540;9.268;2023-03-01T21:21:06;97455.31;;;1.82;82.82
4814;BME280;15375;48.540;9.268;2023-03-01T21:23:33;97424.75;;;1.48;83.35
4814;BME280;15375;48.540;9.268;2023-03-01T21:26:14;97454.16;;;1.60;84.73
4814;BME280;15375;48.540;9.268;2023-03-01T21:28:41;97452.47;;;1.52;85.43
4814;BME280;15375;48.540;9.268;2023-03-01T21:33:35;97448.59;;;1.50;85.52
4814;BME280;15375;48.540;9.268;2023-03-01T21:36:03;97421.28;;;1.28;86.00
4814;BME280;15375;48.540;9.268;2023-03-01T21:38:30;97441.94;;;1.44;86.08
4814;BME280;15375;48.540;9.268;2023-03-01T21:41:04;97442.28;;;1.42;86.14
4814;BME280;15375;48.540;9.268;2023-03-01T21:43:30;97417.28;;;1.38;86.14
4814;BME280;15375;48.540;9.268;2023-03-01T21:45:55;97412.59;;;1.35;85.82
4814;BME280;15375;48.540;9.268;2023-03-01T21:48:24;97408.31;;;1.31;85.42
4814;BME280;15375;48.540;9.268;2023-03-01T21:50:56;97426.81;;;1.36;86.26
4814;BME280;15375;48.540;9.268;2023-03-01T21:53:21;97422.94;;;1.33;86.88
4814;BME280;15375;48.540;9.268;2023-03-01T21:55:47;97428.44;;;1.40;87.17
4814;BME280;15375;48.540;9.268;2023-03-01T21:58:13;97380.66;;;1.11;87.37
4814;BME280;15375;48.540;9.268;2023-03-01T22:00:38;97433.41;;;1.38;87.30
4814;BME280;15375;48.540;9.268;2023-03-01T22:03:04;97406.53;;;1.19;87.67
4814;BME280;15375;48.540;9.268;2023-03-01T22:05:29;97409.22;;;1.19;88.91
4814;BME280;15375;48.540;9.268;2023-03-01T22:07:54;97381.72;;;1.06;88.13
4814;BME280;15375;48.540;9.268;2023-03-01T22:10:20;97421.38;;;1.32;87.77
4814;BME280;15375;48.540;9.268;2023-03-01T22:12:55;97416.00;;;1.32;88.66
4814;BME280;15375;48.540;9.268;2023-03-01T22:15:22;97385.59;;;1.09;88.46
4814;BME280;15375;48.540;9.268;2023-03-01T22:17:47;97415.28;;;1.16;88.33
4814;BME280;15375;48.540;9.268;2023-03-01T22:20:17;97404.81;;;1.11;88.65
4814;BME280;15375;48.540;9.268;2023-03-01T22:22:43;97417.69;;;1.21;88.06
4814;BME280;15375;48.540;9.268;2023-03-01T22:25:09;97409.44;;;1.10;88.12
4814;BME280;15375;48.540;9.268;2023-03-01T22:27:35;97420.88;;;1.07;88.17
4814;BME280;15375;48.540;9.268;2023-03-01T22:30:06;97412.31;;;1.02;89.01
4814;BME280;15375;48.540;9.268;2023-03-01T22:32:32;97389.63;;;0.80;89.64
4814;BME280;15375;48.540;9.268;2023-03-01T22:34:57;97371.41;;;0.70;90.15
4814;BME280;15375;48.540;9.268;2023-03-01T22:37:23;97399.19;;;0.78;90.16
4814;BME280;15375;48.540;9.268;2023-03-01T22:39:48;97404.97;;;0.80;90.55
4814;BME280;15375;48.540;9.268;2023-03-01T22:42:13;97377.81;;;0.65;90.90
4814;BME280;15375;48.540;9.268;2023-03-01T22:44:39;97400.28;;;0.77;90.87
4814;BME280;15375;48.540;9.268;2023-03-01T22:47:06;97360.72;;;0.54;91.48
4814;BME280;15375;48.540;9.268;2023-03-01T22:49:31;97382.41;;;0.65;92.08
4814;BME280;15375;48.540;9.268;2023-03-01T22:51:56;97363.41;;;0.54;92.34
4814;BME280;15375;48.540;9.268;2023-03-01T22:54:22;97376.81;;;0.54;92.65
4814;BME280;15375;48.540;9.268;2023-03-01T22:56:47;97404.53;;;0.78;92.89
4814;BME280;15375;48.540;9.268;2023-03-01T22:59:16;97412.88;;;0.73;93.72
4814;BME280;15375;48.540;9.268;2023-03-01T23:01:47;97407.00;;;0.67;94.58
4814;BME280;15375;48.540;9.268;2023-03-01T23:04:14;97417.03;;;0.70;94.96
4814;BME280;15375;48.540;9.268;2023-03-01T23:06:39;97409.31;;;0.69;95.48
4814;BME280;15375;48.540;9.268;2023-03-01T23:09:18;97376.72;;;0.51;95.21
4814;BME280;15375;48.540;9.268;2023-03-01T23:11:44;97391.50;;;0.60;95.34
4814;BME280;15375;48.540;9.268;2023-03-01T23:14:09;97385.13;;;0.49;95.45
4814;BME280;15375;48.540;9.268;2023-03-01T23:16:35;97405.00;;;0.64;95.91
4814;BME280;15375;48.540;9.268;2023-03-01T23:19:00;97370.44;;;0.43;95.44
4814;BME280;15375;48.540;9.268;2023-03-01T23:21:26;97404.59;;;0.62;95.70
4814;BME280;15375;48.540;9.268;2023-03-01T23:23:53;97407.59;;;0.60;96.39
4814;BME280;15375;48.540;9.268;2023-03-01T23:26:19;97378.75;;;0.38;96.60
4814;BME280;15375;48.540;9.268;2023-03-01T23:28:46;97350.00;;;0.20;96.37
4814;BME280;15375;48.540;9.268;2023-03-01T23:31:14;97400.09;;;0.50;97.42
4814;BME280;15375;48.540;9.268;2023-03-01T23:33:40;97358.47;;;0.22;97.15
4814;BME280;15375;48.540;9.268;2023-03-01T23:36:18;97405.03;;;0.48;96.70
4814;BME280;15375;48.540;9.268;2023-03-01T23:38:48;97399.66;;;0.48;96.90
4814;BME280;15375;48.540;9.268;2023-03-01T23:41:16;97377.03;;;0.30;96.74
4814;BME280;15375;48.540;9.268;2023-03-01T23:43:46;97378.69;;;0.35;97.03
4814;BME280;15375;48.540;9.268;2023-03-01T23:46:13;97385.31;;;0.41;97.72
4814;BME280;15375;48.540;9.268;2023-03-01T23:48:40;97379.03;;;0.33;97.69
4814;BME280;15375;48.540;9.268;2023-03-01T23:51:06;97396.00;;;0.37;97.70
4814;BME280;15375;48.540;9.268;2023-03-01T23:53:34;97388.63;;;0.34;98.43
4814;BME280;15375;48.540;9.268;2023-03-01T23:56:00;97334.88;;;-0.04;98.82
4814;BME280;15375;48.540;9.268;2023-03-01T23:58:25;97379.97;;;0.25;99.41
